sensor_id;sensor_type;location;lat;lon;timestamp;pressure;altitude;pressure_sealevel;temperature;humidity
29331;BME280;16331;52.528;13.342;2023-07-29T00:02:25;28726.19;;;19.67;100.00
29331;BME280;16331;52.528;13.342;2023-07-29T00:04:57;26604.06;;;19.56;100.00
29331;BME280;16331;52.528;13.342;2023-07-29T00:07:39;24494.72;;;19.68;100.00
29331;BME280;16331;52.528;13.342;2023-07-29T00:10:06;25567.81;;;19.99;100.00
29331;BME280;16331;52.528;13.342;2023-07-29T00:12:37;29795.31;;;19.85;100.00
29331;BME280;16331;52.528;13.342;2023-07-29T00:15:12;29076.00;;;19.61;100.00
29331;BME280;16331;52.528;13.342;2023-07-29T00:18:05;29443.66;;;19.87;100.00
29331;BME280;16331;52.528;13.342;2023-07-29T00:20:35;30493.41;;;19.71;100.00
29331;BME280;16331;52.528;13.342;2023-07-29T00:23:05;29784.44;;;19.66;100.00
29331;BME280;16331;52.528;13.342;2023-07-29T00:25:46;29433.16;;;19.69;100.00
29331;BME280;16331;52.528;13.342;2023-07-29T00:28:28;30494.59;;;19.73;100.00
29331;BME280;16331;52.528;13.342;2023-07-29T00:30:54;31560.09;;;19.83;100.00
29331;BME280;16331;52.528;13.342;2023-07-29T00:33:28;32607.38;;;19.62;100.00
29331;BME280;16331;52.528;13.342;2023-07-29T00:35:59;31896.09;;;19.54;100.00
29331;BME280;16331;52.528;13.342;2023-07-29T00:38:38;31182.13;;;19.41;100.00
29331;BME280;16331;52.528;13.342;2023-07-29T00:41:06;28361.78;;;19.46;100.00
29331;BME280;16331;52.528;13.342;2023-07-29T00:43:57;26953.81;;;19.51;100.00
29331;BME280;16331;52.528;13.342;2023-07-29T00:46:27;28354.66;;;19.33;100.00
29331;BME280;16331;52.528;13.342;2023-07-29T00:48:56;27300.59;;;19.40;100.00
29331;BME280;16331;52.528;13.342;2023-07-29T00:52:00;28005.81;;;19.40;100.00
29331;BME280;16331;52.528;13.342;2023-07-29T00:54:52;28354.94;;;19.33;100.00
29331;BME280;16331;52.528;13.342;2023-07-29T00:57:57;27291.00;;;19.22;100.00
29331;BME280;16331;52.528;13.342;2023-07-29T01:00:47;26941.97;;;19.28;100.00
29331;BME280;16331;52.528;13.342;2023-07-29T01:03:34;26232.97;;;19.20;100.00
29331;BME280;16331;52.528;13.342;2023-07-29T01:13:19;31178.84;;;19.36;100.00
29331;BME280;16331;52.528;13.342;2023-07-29T01:22:34;31177.94;;;19.34;100.00
29331;BME280;16331;52.528;13.342;2023-07-29T01:25:16;31174.38;;;19.28;100.00
29331;BME280;16331;52.528;13.342;2023-07-29T01:31:00;26914.91;;;18.77;100.00
29331;BME280;16331;52.528;13.342;2023-07-29T01:34:35;24814.53;;;19.01;100.00
29331;BME280;16331;52.528;13.342;2023-07-29T01:37:17;25177.31;;;19.23;100.00
29331;BME280;16331;52.528;13.342;2023-07-29T01:40:00;27649.94;;;19.34;100.00
29331;BME280;16331;52.528;13.342;2023-07-29T01:42:33;30116.63;;;19.30;100.00
29331;BME280;16331;52.528;13.342;2023-07-29T01:45:00;31882.72;;;19.32;100.00
29331;BME280;16331;52.528;13.342;2023-07-29T01:47:27;32590.38;;;19.35;100.00
29331;BME280;16331;52.528;13.342;2023-07-29T01:49:54;33643.19;;;19.24;100.00
29331;BME280;16331;52.528;13.342;2023-07-29T01:52:30;33282.81;;;19.13;100.00
29331;BME280;16331;52.528;13.342;2023-07-29T01:55:02;31867.53;;;19.07;100.00
29331;BME280;16331;52.528;13.342;2023-07-29T02:03:18;32940.72;;;19.30;100.00
29331;BME280;16331;52.528;13.342;2023-07-29T02:05:49;34353.50;;;19.30;100.00
29331;BME280;16331;52.528;13.342;2023-07-29T02:08:16;35048.91;;;19.13;100.00
29331;BME280;16331;52.528;13.342;2023-07-29T02:10:56;33983.56;;;19.04;100.00
29331;BME280;16331;52.528;13.342;2023-07-29T02:13:37;31853.00;;;18.83;100.00
29331;BME280;16331;52.528;13.342;2023-07-29T02:16:09;29738.94;;;18.86;100.00
29331;BME280;16331;52.528;13.342;2023-07-29T02:18:39;29748.94;;;19.04;100.00
29331;BME280;16331;52.528;13.342;2023-07-29T02:21:06;30803.78;;;18.98;100.00
29331;BME280;16331;52.528;13.342;2023-07-29T02:23:32;30795.81;;;18.85;100.00
29331;BME280;16331;52.528;13.342;2023-07-29T02:25:59;30097.84;;;18.97;100.00
29331;BME280;16331;52.528;13.342;2023-07-29T02:28:29;31145.50;;;18.80;100.00
29331;BME280;16331;52.528;13.342;2023-07-29T02:31:29;30452.84;;;19.01;100.00
29331;BME280;16331;52.528;13.342;2023-07-29T02:34:00;31157.69;;;19.00;100.00
29331;BME280;16331;52.528;13.342;2023-07-29T02:36:28;32925.41;;;19.06;100.00
29331;BME280;16331;52.528;13.342;2023-07-29T02:39:03;33629.84;;;19.03;100.00
29331;BME280;16331;52.528;13.342;2023-07-29T02:41:43;32919.78;;;18.97;100.00
29331;BME280;16331;52.528;13.342;2023-07-29T02:44:12;32573.06;;;19.07;100.00
29331;BME280;16331;52.528;13.342;2023-07-29T02:46:39;33988.69;;;19.12;100.00
29331;BME280;16331;52.528;13.342;2023-07-29T02:49:05;35750.78;;;19.06;100.00
29331;BME280;16331;52.528;13.342;2023-07-29T02:51:32;35748.44;;;19.03;100.00
29331;BME280;16331;52.528;13.342;2023-07-29T02:54:02;35389.53;;;18.94;100.00
29331;BME280;16331;52.528;13.342;2023-07-29T02:56:31;34329.22;;;18.93;100.00
29331;BME280;16331;52.528;13.342;2023-07-29T02:59:05;34320.47;;;18.79;100.00
29331;BME280;16331;52.528;13.342;2023-07-29T03:02:03;32205.13;;;18.82;100.00
29331;BME280;16331;52.528;13.342;2023-07-29T03:04:34;31497.28;;;18.78;100.00
29331;BME280;16331;52.528;13.342;2023-07-29T03:07:00;31502.38;;;18.87;100.00
29331;BME280;16331;52.528;13.342;2023-07-29T03:09:29;32206.97;;;18.85;100.00
29331;BME280;16331;52.528;13.342;2023-07-29T03:12:09;31850.25;;;18.79;100.00
29331;BME280;16331;52.528;13.342;2023-07-29T03:14:42;32202.38;;;18.77;100.00
29331;BME280;16331;52.528;13.342;2023-07-29T03:17:17;32201.16;;;18.76;100.00
29331;BME280;16331;52.528;13.342;2023-07-29T03:19:45;31848.13;;;18.75;100.00
29331;BME280;16331;52.528;13.342;2023-07-29T03:22:13;31494.88;;;18.74;100.00
29331;BME280;16331;52.528;13.342;2023-07-29T03:24:51;31491.25;;;18.68;100.00
29331;BME280;16331;52.528;13.342;2023-07-29T03:27:22;31130.34;;;18.54;100.00
29331;BME280;16331;52.528;13.342;2023-07-29T03:29:54;30426.31;;;18.55;100.00
29331;BME280;16331;52.528;13.342;2023-07-29T03:32:30;30070.72;;;18.50;100.00
29331;BME280;16331;52.528;13.342;2023-07-29T03:35:14;29719.50;;;18.52;100.00
29331;BME280;16331;52.528;13.342;2023-07-29T03:37:57;29363.25;;;18.45;100.00
29331;BME280;16331;52.528;13.342;2023-07-29T03:40:25;29015.19;;;18.52;100.00
29331;BME280;16331;52.528;13.342;2023-07-29T03:42:51;29717.25;;;18.48;100.00
29331;BME280;16331;52.528;13.342;2023-07-29T03:45:30;30066.69;;;18.43;100.00
29331;BME280;16331;52.528;13.342;2023-07-29T03:48:04;29717.81;;;18.49;100.00
29331;BME280;16331;52.528;13.342;2023-07-29T03:50:35;30420.75;;;18.46;100.00
29331;BME280;16331;52.528;13.342;2023-07-29T03:53:08;30420.47;;;18.45;100.00
29331;BME280;16331;52.528;13.342;2023-07-29T03:55:43;30074.47;;;18.56;100.00
29331;BME280;16331;52.528;13.342;2023-07-29T03:58:15;31132.72;;;18.58;100.00
29331;BME280;16331;52.528;13.342;2023-07-29T04:03:45;31839.97;;;18.61;100.00
29331;BME280;16331;52.528;13.342;2023-07-29T04:06:15;32890.16;;;18.49;100.00
29331;BME280;16331;52.528;13.342;2023-07-29T04:09:07;30771.97;;;18.44;100.00
29331;BME280;16331;52.528;13.342;2023-07-29T04:11:38;30779.06;;;18.56;100.00
29331;BME280;16331;52.528;13.342;2023-07-29T04:14:05;31488.56;;;18.63;100.00
29331;BME280;16331;52.528;13.342;2023-07-29T04:16:51;32196.56;;;18.68;100.00
29331;BME280;16331;52.528;13.342;2023-07-29T04:19:26;32905.13;;;18.73;100.00
29331;BME280;16331;52.528;13.342;2023-07-29T04:21:56;33961.44;;;18.69;100.00
29331;BME280;16331;52.528;13.342;2023-07-29T04:24:26;32908.25;;;18.78;100.00
29331;BME280;16331;52.528;13.342;2023-07-29T04:26:59;33975.84;;;18.92;100.00
29331;BME280;16331;52.528;13.342;2023-07-29T04:29:27;35393.53;;;19.00;100.00
29331;BME280;16331;52.528;13.342;2023-07-29T04:31:56;36805.28;;;18.98;100.00
29331;BME280;16331;52.528;13.342;2023-07-29T04:34:33;36813.19;;;19.10;100.00
29331;BME280;16331;52.528;13.342;2023-07-29T04:37:01;37539.34;;;19.37;100.00
29331;BME280;16331;52.528;13.342;2023-07-29T04:39:28;40026.53;;;19.52;100.00
29331;BME280;16331;52.528;13.342;2023-07-29T04:41:57;43206.03;;;19.42;100.00
29331;BME280;16331;52.528;13.342;2023-07-29T04:44:23;44985.25;;;19.51;100.00
29331;BME280;16331;52.528;13.342;2023-07-29T04:46:50;44992.66;;;19.60;100.00
29331;BME280;16331;52.528;13.342;2023-07-29T04:49:18;45365.88;;;19.82;100.00
29331;BME280;16331;52.528;13.342;2023-07-29T04:51:44;50698.34;;;19.90;100.00
29331;BME280;16331;52.528;13.342;2023-07-29T04:54:12;53895.97;;;19.88;100.00
29331;BME280;16331;52.528;13.342;2023-07-29T04:56:41;53881.44;;;19.73;100.00
29331;BME280;16331;52.528;13.342;2023-07-29T04:59:08;53953.66;;;20.48;100.00
29331;BME280;16331;52.528;13.342;2023-07-29T05:01:35;64705.31;;;20.96;100.00
29331;BME280;16331;52.528;13.342;2023-07-29T05:04:21;88148.44;;;21.82;100.00
29331;BME280;16331;52.528;13.342;2023-07-29T05:06:50;110537.63;;;21.69;100.00
29331;BME280;16331;52.528;13.342;2023-07-29T05:09:56;110107.47;;;21.33;100.00
29331;BME280;16331;52.528;13.342;2023-07-29T05:15:39;86942.38;;;20.99;100.00
29331;BME280;16331;52.528;13.342;2023-07-29T05:18:46;81884.34;;;20.82;100.00
29331;BME280;16331;52.528;13.342;2023-07-29T05:21:39;86237.22;;;21.09;100.00
29331;BME280;16331;52.528;13.342;2023-07-29T05:24:23;82294.59;;;21.17;100.00
29331;BME280;16331;52.528;13.342;2023-07-29T05:31:00;97096.88;;;21.39;100.00
29331;BME280;16331;52.528;13.342;2023-07-29T05:33:29;93429.81;;;21.03;100.00
29331;BME280;16331;52.528;13.342;2023-07-29T05:36:18;81133.50;;;20.59;100.00
29331;BME280;16331;52.528;13.342;2023-07-29T05:39:22;71100.97;;;20.61;100.00
29331;BME280;16331;52.528;13.342;2023-07-29T05:42:07;66756.50;;;20.16;100.00
29331;BME280;16331;52.528;13.342;2023-07-29T05:44:35;59962.56;;;20.02;100.00
29331;BME280;16331;52.528;13.342;2023-07-29T05:47:25;54968.56;;;19.94;100.00
29331;BME280;16331;52.528;13.342;2023-07-29T05:50:00;54628.94;;;20.10;100.00
29331;BME280;16331;52.528;13.342;2023-07-29T05:52:49;57145.47;;;20.35;100.00
29331;BME280;16331;52.528;13.342;2023-07-29T05:55:35;58922.53;;;20.30;100.00
29331;BME280;16331;52.528;13.342;2023-07-29T05:58:14;60708.94;;;20.34;100.00
29331;BME280;16331;52.528;13.342;2023-07-29T06:01:01;60721.91;;;20.46;100.00
29331;BME280;16331;52.528;13.342;2023-07-29T06:03:28;61065.59;;;20.34;100.00
29331;BME280;16331;52.528;13.342;2023-07-29T06:05:55;61443.06;;;20.53;100.00
29331;BME280;16331;52.528;13.342;2023-07-29T06:08:21;67555.06;;;20.87;100.00
29331;BME280;16331;52.528;13.342;2023-07-29T06:10:47;73652.38;;;20.96;100.00
29331;BME280;16331;52.528;13.342;2023-07-29T06:13:13;77636.69;;;21.25;100.00
29331;BME280;16331;52.528;13.342;2023-07-29T06:15:41;91696.56;;;21.46;100.00
29331;BME280;16331;52.528;13.342;2023-07-29T06:18:11;87757.50;;;21.62;100.00
29331;BME280;16331;52.528;13.342;2023-07-29T06:20:38;90989.81;;;21.55;100.00
29331;BME280;16331;52.528;13.342;2023-07-29T06:23:05;90246.91;;;21.41;100.00
29331;BME280;16331;52.528;13.342;2023-07-29T06:25:34;96805.53;;;21.81;100.00
29331;BME280;16331;52.528;13.342;2023-07-29T06:28:07;97175.25;;;21.86;100.00
29331;BME280;16331;52.528;13.342;2023-07-29T06:30:34;96779.50;;;21.65;100.00
29331;BME280;16331;52.528;13.342;2023-07-29T06:33:00;100439.16;;;21.92;100.00
29331;BME280;16331;52.528;13.342;2023-07-29T06:35:27;100380.84;;;21.58;100.00
29331;BME280;16331;52.528;13.342;2023-07-29T06:37:56;100063.59;;;21.84;100.00
29331;BME280;16331;52.528;13.342;2023-07-29T06:40:22;101890.69;;;21.94;100.00
29331;BME280;16331;52.528;13.342;2023-07-29T06:42:48;109171.38;;;22.13;100.00
29331;BME280;16331;52.528;13.342;2023-07-29T06:45:17;109208.13;;;22.33;100.00
29331;BME280;16331;52.528;13.342;2023-07-29T06:48:05;139893.78;;;22.63;100.00
29331;BME280;16331;52.528;13.342;2023-07-29T06:50:34;136204.34;;;22.51;100.00
29331;BME280;16331;52.528;13.342;2023-07-29T06:53:00;136211.41;;;22.54;100.00
29331;BME280;16331;52.528;13.342;2023-07-29T06:55:29;138039.56;;;22.53;100.00
29331;BME280;16331;52.528;13.342;2023-07-29T06:57:57;139898.59;;;22.65;100.00
29331;BME280;16331;52.528;13.342;2023-07-29T07:00:30;133689.84;;;22.70;100.00
29331;BME280;16331;52.528;13.342;2023-07-29T07:03:00;135561.38;;;22.89;100.00
29331;BME280;16331;52.528;13.342;2023-07-29T07:05:28;146669.94;;;23.35;100.00
29331;BME280;16331;52.528;13.342;2023-07-29T07:07:54;151367.88;;;23.04;100.00
29331;BME280;16331;52.528;13.342;2023-07-29T07:10:20;123411.38;;;22.44;100.00
29331;BME280;16331;52.528;13.342;2023-07-29T07:12:52;124260.91;;;23.01;100.00
29331;BME280;16331;52.528;13.342;2023-07-29T07:15:21;158050.19;;;23.62;100.00
29331;BME280;16331;52.528;13.342;2023-07-29T07:17:49;162249.91;;;23.79;100.00
29331;BME280;16331;52.528;13.342;2023-07-29T07:20:16;157615.56;;;23.29;100.00
29331;BME280;16331;52.528;13.342;2023-07-29T07:22:54;150707.59;;;23.33;100.00
29331;BME280;16331;52.528;13.342;2023-07-29T07:25:31;162201.38;;;23.61;100.00
29331;BME280;16331;52.528;13.342;2023-07-29T07:27:58;158845.50;;;23.24;100.00
29331;BME280;16331;52.528;13.342;2023-07-29T07:30:24;162266.59;;;23.85;100.00
29331;BME280;16331;52.528;13.342;2023-07-29T07:32:54;162161.13;;;23.47;100.00
29331;BME280;16331;52.528;13.342;2023-07-29T07:35:20;162259.66;;;23.82;100.00
29331;BME280;16331;52.528;13.342;2023-07-29T07:37:49;162347.09;;;24.14;100.00
29331;BME280;16331;52.528;13.342;2023-07-29T07:40:21;162410.97;;;24.37;100.00
29331;BME280;16331;52.528;13.342;2023-07-29T07:42:51;162490.09;;;24.66;100.00
29331;BME280;16331;52.528;13.342;2023-07-29T07:45:17;162509.59;;;24.73;100.00
29331;BME280;16331;52.528;13.342;2023-07-29T07:47:44;162394.31;;;24.31;100.00
29331;BME280;16331;52.528;13.342;2023-07-29T07:50:17;162373.47;;;24.23;100.00
29331;BME280;16331;52.528;13.342;2023-07-29T07:52:44;162355.41;;;24.17;100.00
29331;BME280;16331;52.528;13.342;2023-07-29T07:55:13;162347.09;;;24.14;100.00
29331;BME280;16331;52.528;13.342;2023-07-29T07:57:43;162280.44;;;23.90;100.00
29331;BME280;16331;52.528;13.342;2023-07-29T08:00:11;162402.66;;;24.34;100.00
29331;BME280;16331;52.528;13.342;2023-07-29T08:02:37;162474.84;;;24.60;100.00
29331;BME280;16331;52.528;13.342;2023-07-29T08:05:05;162591.50;;;25.02;100.00
29331;BME280;16331;52.528;13.342;2023-07-29T08:07:38;162755.44;;;25.61;100.00
29331;BME280;16331;52.528;13.342;2023-07-29T08:10:10;162645.66;;;25.22;100.00
29331;BME280;16331;52.528;13.342;2023-07-29T08:12:37;162519.28;;;24.76;100.00
29331;BME280;16331;52.528;13.342;2023-07-29T08:15:05;162409.56;;;24.37;100.00
29331;BME280;16331;52.528;13.342;2023-07-29T08:17:31;162317.97;;;24.03;100.00
29331;BME280;16331;52.528;13.342;2023-07-29T08:19:58;162508.19;;;24.72;100.00
29331;BME280;16331;52.528;13.342;2023-07-29T08:22:24;162572.09;;;24.95;100.00
29331;BME280;16331;52.528;13.342;2023-07-29T08:24:51;162402.66;;;24.34;100.00
29331;BME280;16331;52.528;13.342;2023-07-29T08:27:18;162440.09;;;24.48;100.00
29331;BME280;16331;52.528;13.342;2023-07-29T08:29:46;162437.34;;;24.47;100.00
29331;BME280;16331;52.528;13.342;2023-07-29T08:32:18;162449.81;;;24.51;100.00
29331;BME280;16331;52.528;13.342;2023-07-29T08:34:50;162422.03;;;24.41;100.00
29331;BME280;16331;52.528;13.342;2023-07-29T08:37:16;162435.94;;;24.46;100.00
29331;BME280;16331;52.528;13.342;2023-07-29T08:39:43;162663.72;;;25.28;100.00
29331;BME280;16331;52.528;13.342;2023-07-29T08:42:18;162704.06;;;25.43;100.00
29331;BME280;16331;52.528;13.342;2023-07-29T08:44:46;162623.44;;;25.14;100.00
29331;BME280;16331;52.528;13.342;2023-07-29T08:47:19;162547.06;;;24.86;100.00
29331;BME280;16331;52.528;13.342;2023-07-29T08:49:51;162474.84;;;24.60;100.00
29331;BME280;16331;52.528;13.342;2023-07-29T08:52:25;162504.03;;;24.71;100.00
29331;BME280;16331;52.528;13.342;2023-07-29T08:54:59;162494.31;;;24.67;100.00
29331;BME280;16331;52.528;13.342;2023-07-29T08:57:26;162603.97;;;25.07;100.00
29331;BME280;16331;52.528;13.342;2023-07-29T08:59:58;162522.09;;;24.77;100.00
29331;BME280;16331;52.528;13.342;2023-07-29T09:02:27;162580.41;;;24.98;100.00
29331;BME280;16331;52.528;13.342;2023-07-29T09:04:58;162777.69;;;25.70;100.00
29331;BME280;16331;52.528;13.342;2023-07-29T09:07:38;162624.84;;;25.14;100.00
29331;BME280;16331;52.528;13.342;2023-07-29T09:10:13;162773.50;;;25.68;100.00
29331;BME280;16331;52.528;13.342;2023-07-29T09:12:42;162781.84;;;25.71;100.00
29331;BME280;16331;52.528;13.342;2023-07-29T09:15:08;162791.59;;;25.75;100.00
29331;BME280;16331;52.528;13.342;2023-07-29T09:17:35;162891.66;;;26.11;100.00
29331;BME280;16331;52.528;13.342;2023-07-29T09:20:02;162888.91;;;26.10;100.00
29331;BME280;16331;52.528;13.342;2023-07-29T09:22:32;162791.59;;;25.75;100.00
29331;BME280;16331;52.528;13.342;2023-07-29T09:25:01;162708.22;;;25.44;100.00
29331;BME280;16331;52.528;13.342;2023-07-29T09:27:30;162605.38;;;25.07;100.00
29331;BME280;16331;52.528;13.342;2023-07-29T09:30:05;162597.06;;;25.04;100.00
29331;BME280;16331;52.528;13.342;2023-07-29T09:32:34;162599.81;;;25.05;100.00
29331;BME280;16331;52.528;13.342;2023-07-29T09:35:15;162731.88;;;25.53;100.00
29331;BME280;16331;52.528;13.342;2023-07-29T09:37:41;162747.13;;;25.58;100.00
29331;BME280;16331;52.528;13.342;2023-07-29T09:40:14;162786.00;;;25.73;100.00
29331;BME280;16331;52.528;13.342;2023-07-29T09:42:54;162783.25;;;25.72;100.00
29331;BME280;16331;52.528;13.342;2023-07-29T09:45:31;162808.25;;;25.81;100.00
29331;BME280;16331;52.528;13.342;2023-07-29T09:48:00;162756.84;;;25.62;100.00
29331;BME280;16331;52.528;13.342;2023-07-29T09:50:28;162842.97;;;25.93;100.00
29331;BME280;16331;52.528;13.342;2023-07-29T09:52:56;162945.88;;;26.30;100.00
29331;BME280;16331;52.528;13.342;2023-07-29T09:55:26;163072.50;;;26.76;100.00
29331;BME280;16331;52.528;13.342;2023-07-29T09:58:00;163194.84;;;27.20;100.00
29331;BME280;16331;52.528;13.342;2023-07-29T10:00:40;163098.91;;;26.85;100.00
29331;BME280;16331;52.528;13.342;2023-07-29T10:03:09;163041.91;;;26.65;100.00
29331;BME280;16331;52.528;13.342;2023-07-29T10:05:39;163079.41;;;26.78;100.00
29331;BME280;16331;52.528;13.342;2023-07-29T10:08:17;163023.78;;;26.58;100.00
29331;BME280;16331;52.528;13.342;2023-07-29T10:10:45;162963.97;;;26.37;100.00
29331;BME280;16331;52.528;13.342;2023-07-29T10:13:26;163002.88;;;26.51;100.00
29331;BME280;16331;52.528;13.342;2023-07-29T10:15:54;163278.38;;;27.50;100.00
29331;BME280;16331;52.528;13.342;2023-07-29T10:18:24;163366.06;;;27.82;100.00
29331;BME280;16331;52.528;13.342;2023-07-29T10:20:51;163361.91;;;27.80;100.00
29331;BME280;16331;52.528;13.342;2023-07-29T10:23:26;163046.06;;;26.66;100.00
29331;BME280;16331;52.528;13.342;2023-07-29T10:26:04;162859.69;;;25.99;100.00
29331;BME280;16331;52.528;13.342;2023-07-29T10:28:41;162767.94;;;25.66;100.00
29331;BME280;16331;52.528;13.342;2023-07-29T10:31:12;162912.56;;;26.18;100.00
29331;BME280;16331;52.528;13.342;2023-07-29T10:33:40;162930.63;;;26.25;100.00
29331;BME280;16331;52.528;13.342;2023-07-29T10:36:06;162986.22;;;26.45;100.00
29331;BME280;16331;52.528;13.342;2023-07-29T10:38:35;162852.72;;;25.97;100.00
29331;BME280;16331;52.528;13.342;2023-07-29T10:41:07;162916.72;;;26.20;100.00
29331;BME280;16331;52.528;13.342;2023-07-29T10:43:37;163048.81;;;26.67;100.00
29331;BME280;16331;52.528;13.342;2023-07-29T10:46:21;163083.59;;;26.80;100.00
29331;BME280;16331;52.528;13.342;2023-07-29T10:48:54;162927.81;;;26.24;100.00
29331;BME280;16331;52.528;13.342;2023-07-29T10:51:27;162904.22;;;26.15;100.00
29331;BME280;16331;52.528;13.342;2023-07-29T10:56:40;162574.84;;;24.96;100.00
29331;BME280;16331;52.528;13.342;2023-07-29T11:01:50;162506.78;;;24.72;100.00
29331;BME280;16331;52.528;13.342;2023-07-29T11:07:27;162410.97;;;24.37;100.00
29331;BME280;16331;52.528;13.342;2023-07-29T11:10:04;162349.91;;;24.15;100.00
29331;BME280;16331;52.528;13.342;2023-07-29T11:12:50;161990.53;;;22.85;100.00
29331;BME280;16331;52.528;13.342;2023-07-29T11:15:24;61859.31;;;21.07;100.00
29331;BME280;16331;52.528;13.342;2023-07-29T11:17:58;41870.13;;;20.47;100.00
29331;BME280;16331;52.528;13.342;2023-07-29T11:20:34;35438.06;;;19.67;100.00
29331;BME280;16331;52.528;13.342;2023-07-29T11:23:02;38632.72;;;19.82;100.00
29331;BME280;16331;52.528;13.342;2023-07-29T11:25:29;45025.97;;;20.00;100.00
29331;BME280;16331;52.528;13.342;2023-07-29T11:27:57;34408.56;;;20.16;100.00
29331;BME280;16331;52.528;13.342;2023-07-29T11:30:25;33722.75;;;20.50;100.00
29331;BME280;16331;52.528;13.342;2023-07-29T11:32:53;35850.47;;;20.55;100.00
29331;BME280;16331;52.528;13.342;2023-07-29T11:35:21;35153.78;;;20.73;100.00
29331;BME280;16331;52.528;13.342;2023-07-29T11:37:50;33745.06;;;20.85;100.00
29331;BME280;16331;52.528;13.342;2023-07-29T11:40:18;33053.22;;;21.11;100.00
29331;BME280;16331;52.528;13.342;2023-07-29T11:42:45;33768.00;;;21.21;100.00
29331;BME280;16331;52.528;13.342;2023-07-29T11:45:14;35546.31;;;21.30;100.00
29331;BME280;16331;52.528;13.342;2023-07-29T11:47:40;36251.06;;;21.24;100.00
29331;BME280;16331;52.528;13.342;2023-07-29T11:50:12;35547.97;;;21.33;100.00
29331;BME280;16331;52.528;13.342;2023-07-29T11:52:46;33416.25;;;21.25;100.00
29331;BME280;16331;52.528;13.342;2023-07-29T11:55:15;33413.72;;;21.21;100.00
29331;BME280;16331;52.528;13.342;2023-07-29T11:57:42;32704.66;;;21.20;100.00
29331;BME280;16331;52.528;13.342;2023-07-29T12:00:10;33072.00;;;21.41;100.00
29331;BME280;16331;52.528;13.342;2023-07-29T12:02:39;36255.81;;;21.31;100.00
29331;BME280;16331;52.528;13.342;2023-07-29T12:05:07;37330.97;;;21.47;100.00
29331;BME280;16331;52.528;13.342;2023-07-29T12:07:37;43055.25;;;22.01;100.00
29331;BME280;16331;52.528;13.342;2023-07-29T12:10:04;49124.69;;;22.19;100.00
29331;BME280;16331;52.528;13.342;2023-07-29T12:12:31;54465.94;;;22.09;100.00
29331;BME280;16331;52.528;13.342;2023-07-29T12:15:00;51963.28;;;22.04;100.00
29331;BME280;16331;52.528;13.342;2023-07-29T12:17:26;49122.47;;;22.17;100.00
29331;BME280;16331;52.528;13.342;2023-07-29T12:19:55;54114.31;;;22.14;100.00
29331;BME280;16331;52.528;13.342;2023-07-29T12:22:22;46606.03;;;21.91;100.00
29331;BME280;16331;52.528;13.342;2023-07-29T12:24:51;48039.69;;;22.01;100.00
29331;BME280;16331;52.528;13.342;2023-07-29T12:27:19;46267.25;;;22.11;100.00
29331;BME280;16331;52.528;13.342;2023-07-29T12:29:47;46997.97;;;22.33;100.00
29331;BME280;16331;52.528;13.342;2023-07-29T12:32:14;47001.81;;;22.37;100.00
29331;BME280;16331;52.528;13.342;2023-07-29T12:34:41;45593.28;;;22.57;100.00
29331;BME280;16331;52.528;13.342;2023-07-29T12:37:09;57792.75;;;23.18;100.00
29331;BME280;16331;52.528;13.342;2023-07-29T12:39:40;81632.75;;;24.11;100.00
29331;BME280;16331;52.528;13.342;2023-07-29T12:42:09;87422.97;;;24.17;100.00
29331;BME280;16331;52.528;13.342;2023-07-29T12:44:37;99498.69;;;24.87;100.00
29331;BME280;16331;52.528;13.342;2023-07-29T12:47:06;107996.41;;;25.58;100.00
29331;BME280;16331;52.528;13.342;2023-07-29T12:49:37;133657.22;;;25.77;100.00
29331;BME280;16331;52.528;13.342;2023-07-29T12:52:05;162980.63;;;26.43;100.00
29331;BME280;16331;52.528;13.342;2023-07-29T12:54:33;162995.94;;;26.48;100.00
29331;BME280;16331;52.528;13.342;2023-07-29T12:57:00;163282.53;;;27.52;100.00
29331;BME280;16331;52.528;13.342;2023-07-29T12:59:27;163093.34;;;26.83;100.00
29331;BME280;16331;52.528;13.342;2023-07-29T13:01:53;163233.84;;;27.34;100.00
29331;BME280;16331;52.528;13.342;2023-07-29T13:04:20;163215.75;;;27.28;100.00
29331;BME280;16331;52.528;13.342;2023-07-29T13:06:47;163364.66;;;27.81;100.00
29331;BME280;16331;52.528;13.342;2023-07-29T13:09:20;163435.69;;;28.07;100.00
29331;BME280;16331;52.528;13.342;2023-07-29T13:11:46;163186.50;;;27.17;100.00
29331;BME280;16331;52.528;13.342;2023-07-29T13:14:12;162975.13;;;26.41;100.00
29331;BME280;16331;52.528;13.342;2023-07-29T13:16:39;162913.91;;;26.19;100.00
29331;BME280;16331;52.528;13.342;2023-07-29T13:19:06;163167.00;;;27.10;100.00
29331;BME280;16331;52.528;13.342;2023-07-29T13:21:36;163210.19;;;27.26;100.00
29331;BME280;16331;52.528;13.342;2023-07-29T13:24:02;163357.66;;;27.79;100.00
29331;BME280;16331;52.528;13.342;2023-07-29T13:26:30;163579.16;;;28.59;100.00
29331;BME280;16331;52.528;13.342;2023-07-29T13:29:01;163510.88;;;28.34;100.00
29331;BME280;16331;52.528;13.342;2023-07-29T13:31:28;163605.59;;;28.68;100.00
29331;BME280;16331;52.528;13.342;2023-07-29T13:33:54;163834.06;;;29.50;100.00
29331;BME280;16331;52.528;13.342;2023-07-29T13:36:20;163719.84;;;29.09;100.00
29331;BME280;16331;52.528;13.342;2023-07-29T13:38:47;163820.13;;;29.45;100.00
29331;BME280;16331;52.528;13.342;2023-07-29T13:41:18;163687.75;;;28.98;100.00
29331;BME280;16331;52.528;13.342;2023-07-29T13:43:44;163746.31;;;29.19;100.00